sensor_id;sensor_type;location;lat;lon;timestamp;temperature;humidity
37910;DHT22;23741;49.446;8.754;2022-09-01T00:01:11;21.70;55.70
37910;DHT22;23741;49.446;8.754;2022-09-01T00:03:19;21.70;55.70
37910;DHT22;23741;49.446;8.754;2022-09-01T00:05:23;21.70;55.80
37910;DHT22;23741;49.446;8.754;2022-09-01T00:07:26;21.70;55.70
37910;DHT22;23741;49.446;8.754;2022-09-01T00:09:30;21.70;55.90
37910;DHT22;23741;49.446;8.754;2022-09-01T00:11:32;21.70;56.20
37910;DHT22;23741;49.446;8.754;2022-09-01T00:13:34;21.70;56.20
37910;DHT22;23741;49.446;8.754;2022-09-01T00:15:35;21.70;56.20
37910;DHT22;23741;49.446;8.754;2022-09-01T00:17:37;21.70;56.10
37910;DHT22;23741;49.446;8.754;2022-09-01T00:19:39;21.70;56.10
37910;DHT22;23741;49.446;8.754;2022-09-01T00:21:42;21.60;56.20
37910;DHT22;23741;49.446;8.754;2022-09-01T00:23:44;21.60;56.10
37910;DHT22;23741;49.446;8.754;2022-09-01T00:25:45;21.60;56.30
37910;DHT22;23741;49.446;8.754;2022-09-01T00:27:47;21.60;56.40
37910;DHT22;23741;49.446;8.754;2022-09-01T00:29:49;21.60;56.30
37910;DHT22;23741;49.446;8.754;2022-09-01T00:31:51;21.60;56.30
37910;DHT22;23741;49.446;8.754;2022-09-01T00:33:53;21.60;56.50
37910;DHT22;23741;49.446;8.754;2022-09-01T00:35:55;21.60;56.60
37910;DHT22;23741;49.446;8.754;2022-09-01T00:37:56;21.60;56.60
37910;DHT22;23741;49.446;8.754;2022-09-01T00:40:01;21.60;56.50
37910;DHT22;23741;49.446;8.754;2022-09-01T00:42:03;21.60;56.60
37910;DHT22;23741;49.446;8.754;2022-09-01T00:44:07;21.60;56.50
37910;DHT22;23741;49.446;8.754;2022-09-01T00:46:11;21.60;56.70
37910;DHT22;23741;49.446;8.754;2022-09-01T00:48:13;21.50;56.60
37910;DHT22;23741;49.446;8.754;2022-09-01T00:50:16;21.60;56.50
37910;DHT22;23741;49.446;8.754;2022-09-01T00:52:27;21.50;56.80
37910;DHT22;23741;49.446;8.754;2022-09-01T00:54:31;21.50;57.40
37910;DHT22;23741;49.446;8.754;2022-09-01T00:56:34;21.50;56.70
37910;DHT22;23741;49.446;8.754;2022-09-01T00:58:38;21.50;57.00
37910;DHT22;23741;49.446;8.754;2022-09-01T01:00:40;21.50;56.80
37910;DHT22;23741;49.446;8.754;2022-09-01T01:02:43;21.50;57.00
37910;DHT22;23741;49.446;8.754;2022-09-01T01:04:45;21.50;56.90
37910;DHT22;23741;49.446;8.754;2022-09-01T01:06:49;21.50;56.90
37910;DHT22;23741;49.446;8.754;2022-09-01T01:08:59;21.50;56.90
37910;DHT22;23741;49.446;8.754;2022-09-01T01:11:02;21.40;56.80
37910;DHT22;23741;49.446;8.754;2022-09-01T01:13:08;21.40;57.00
37910;DHT22;23741;49.446;8.754;2022-09-01T01:15:12;21.40;57.10
37910;DHT22;23741;49.446;8.754;2022-09-01T01:17:14;21.40;57.00
37910;DHT22;23741;49.446;8.754;2022-09-01T01:19:23;21.40;57.10
37910;DHT22;23741;49.446;8.754;2022-09-01T01:21:47;21.40;57.20
37910;DHT22;23741;49.446;8.754;2022-09-01T01:26:10;21.40;57.30
37910;DHT22;23741;49.446;8.754;2022-09-01T01:28:18;21.30;57.30
37910;DHT22;23741;49.446;8.754;2022-09-01T01:30:24;21.30;57.20
37910;DHT22;23741;49.446;8.754;2022-09-01T01:32:27;21.30;57.30
37910;DHT22;23741;49.446;8.754;2022-09-01T01:34:30;21.30;57.30
37910;DHT22;23741;49.446;8.754;2022-09-01T01:36:34;21.30;57.40
37910;DHT22;23741;49.446;8.754;2022-09-01T01:38:40;21.30;57.50
37910;DHT22;23741;49.446;8.754;2022-09-01T01:40:45;21.30;57.50
37910;DHT22;23741;49.446;8.754;2022-09-01T01:42:48;21.30;57.60
37910;DHT22;23741;49.446;8.754;2022-09-01T01:44:51;21.30;57.60
37910;DHT22;23741;49.446;8.754;2022-09-01T01:46:53;21.30;57.50
37910;DHT22;23741;49.446;8.754;2022-09-01T01:48:56;21.30;57.50
37910;DHT22;23741;49.446;8.754;2022-09-01T01:50:58;21.30;57.40
37910;DHT22;23741;49.446;8.754;2022-09-01T01:53:00;21.20;57.60
37910;DHT22;23741;49.446;8.754;2022-09-01T01:55:03;21.20;57.50
37910;DHT22;23741;49.446;8.754;2022-09-01T01:57:13;21.20;57.60
37910;DHT22;23741;49.446;8.754;2022-09-01T01:59:18;21.20;57.70
37910;DHT22;23741;49.446;8.754;2022-09-01T02:01:21;21.20;57.80
37910;DHT22;23741;49.446;8.754;2022-09-01T02:03:26;21.20;57.80
37910;DHT22;23741;49.446;8.754;2022-09-01T02:05:31;21.20;57.70
37910;DHT22;23741;49.446;8.754;2022-09-01T02:07:33;21.20;57.80
37910;DHT22;23741;49.446;8.754;2022-09-01T02:09:35;21.20;58.10
37910;DHT22;23741;49.446;8.754;2022-09-01T02:11:39;21.20;57.70
37910;DHT22;23741;49.446;8.754;2022-09-01T02:13:41;21.20;57.80
37910;DHT22;23741;49.446;8.754;2022-09-01T02:15:46;21.20;57.70
37910;DHT22;23741;49.446;8.754;2022-09-01T02:17:48;21.20;57.90
37910;DHT22;23741;49.446;8.754;2022-09-01T02:19:51;21.20;58.00
37910;DHT22;23741;49.446;8.754;2022-09-01T02:21:57;21.20;57.90
37910;DHT22;23741;49.446;8.754;2022-09-01T02:24:02;21.20;57.80
37910;DHT22;23741;49.446;8.754;2022-09-01T02:26:05;21.10;58.40
37910;DHT22;23741;49.446;8.754;2022-09-01T02:28:19;21.10;57.70
37910;DHT22;23741;49.446;8.754;2022-09-01T02:30:22;21.10;57.80
37910;DHT22;23741;49.446;8.754;2022-09-01T02:32:25;21.10;57.70
37910;DHT22;23741;49.446;8.754;2022-09-01T02:34:27;21.10;57.50
37910;DHT22;23741;49.446;8.754;2022-09-01T02:36:29;21.10;57.60
37910;DHT22;23741;49.446;8.754;2022-09-01T02:38:36;21.00;57.70
37910;DHT22;23741;49.446;8.754;2022-09-01T02:40:42;21.00;57.70
37910;DHT22;23741;49.446;8.754;2022-09-01T02:42:45;21.00;57.90
37910;DHT22;23741;49.446;8.754;2022-09-01T02:44:48;21.00;57.60
37910;DHT22;23741;49.446;8.754;2022-09-01T02:46:50;21.00;57.70
37910;DHT22;23741;49.446;8.754;2022-09-01T02:48:54;20.90;57.80
37910;DHT22;23741;49.446;8.754;2022-09-01T02:50:57;20.90;57.90
37910;DHT22;23741;49.446;8.754;2022-09-01T02:53:00;20.90;57.90
37910;DHT22;23741;49.446;8.754;2022-09-01T02:55:05;20.90;58.00
37910;DHT22;23741;49.446;8.754;2022-09-01T02:57:07;20.90;57.90
37910;DHT22;23741;49.446;8.754;2022-09-01T02:59:09;20.90;58.00
37910;DHT22;23741;49.446;8.754;2022-09-01T03:01:35;20.90;57.90
37910;DHT22;23741;49.446;8.754;2022-09-01T03:03:35;20.80;58.30
37910;DHT22;23741;49.446;8.754;2022-09-01T03:05:39;20.80;58.30
37910;DHT22;23741;49.446;8.754;2022-09-01T03:07:42;20.80;58.00
37910;DHT22;23741;49.446;8.754;2022-09-01T03:09:44;20.80;58.60
37910;DHT22;23741;49.446;8.754;2022-09-01T03:11:47;20.80;58.40
37910;DHT22;23741;49.446;8.754;2022-09-01T03:13:49;20.80;58.30
37910;DHT22;23741;49.446;8.754;2022-09-01T03:15:51;20.80;58.20
37910;DHT22;23741;49.446;8.754;2022-09-01T03:17:53;20.80;58.30
37910;DHT22;23741;49.446;8.754;2022-09-01T03:19:55;20.70;58.40
37910;DHT22;23741;49.446;8.754;2022-09-01T03:21:56;20.70;58.40
37910;DHT22;23741;49.446;8.754;2022-09-01T03:24:03;20.70;58.20
37910;DHT22;23741;49.446;8.754;2022-09-01T03:26:05;20.70;58.30
37910;DHT22;23741;49.446;8.754;2022-09-01T03:28:07;20.70;58.30
37910;DHT22;23741;49.446;8.754;2022-09-01T03:30:10;20.70;58.20
37910;DHT22;23741;49.446;8.754;2022-09-01T03:32:12;20.70;58.60
37910;DHT22;23741;49.446;8.754;2022-09-01T03:34:15;20.70;58.80
37910;DHT22;23741;49.446;8.754;2022-09-01T03:36:23;20.70;58.40
37910;DHT22;23741;49.446;8.754;2022-09-01T03:38:25;20.60;58.60
37910;DHT22;23741;49.446;8.754;2022-09-01T03:40:31;20.60;58.60
37910;DHT22;23741;49.446;8.754;2022-09-01T03:42:34;20.60;58.60
37910;DHT22;23741;49.446;8.754;2022-09-01T03:44:36;20.60;58.70
37910;DHT22;23741;49.446;8.754;2022-09-01T03:46:41;20.60;58.30
37910;DHT22;23741;49.446;8.754;2022-09-01T03:48:44;20.60;58.90
37910;DHT22;23741;49.446;8.754;2022-09-01T03:50:46;20.60;58.90
37910;DHT22;23741;49.446;8.754;2022-09-01T03:52:49;20.50;58.80
37910;DHT22;23741;49.446;8.754;2022-09-01T03:54:53;20.50;58.60
37910;DHT22;23741;49.446;8.754;2022-09-01T03:56:56;20.50;58.90
37910;DHT22;23741;49.446;8.754;2022-09-01T03:59:00;20.50;59.10
37910;DHT22;23741;49.446;8.754;2022-09-01T04:01:02;20.50;59.50
37910;DHT22;23741;49.446;8.754;2022-09-01T04:03:09;20.50;59.40
37910;DHT22;23741;49.446;8.754;2022-09-01T04:05:14;20.50;59.00
37910;DHT22;23741;49.446;8.754;2022-09-01T04:07:16;20.50;59.40
37910;DHT22;23741;49.446;8.754;2022-09-01T04:09:20;20.50;59.40
37910;DHT22;23741;49.446;8.754;2022-09-01T04:11:21;20.40;59.40
37910;DHT22;23741;49.446;8.754;2022-09-01T04:13:28;20.40;59.70
37910;DHT22;23741;49.446;8.754;2022-09-01T04:15:30;20.40;59.10
37910;DHT22;23741;49.446;8.754;2022-09-01T04:17:35;20.40;59.10
37910;DHT22;23741;49.446;8.754;2022-09-01T04:19:55;20.40;59.10
37910;DHT22;23741;49.446;8.754;2022-09-01T04:21:59;20.40;59.60
37910;DHT22;23741;49.446;8.754;2022-09-01T04:24:05;20.40;59.80
37910;DHT22;23741;49.446;8.754;2022-09-01T04:26:10;20.40;59.70
37910;DHT22;23741;49.446;8.754;2022-09-01T04:28:16;20.30;59.30
37910;DHT22;23741;49.446;8.754;2022-09-01T04:30:23;20.40;59.80
37910;DHT22;23741;49.446;8.754;2022-09-01T04:32:27;20.30;59.90
37910;DHT22;23741;49.446;8.754;2022-09-01T04:34:34;20.30;59.50
37910;DHT22;23741;49.446;8.754;2022-09-01T04:36:43;20.30;59.90
37910;DHT22;23741;49.446;8.754;2022-09-01T04:38:46;20.30;59.50
37910;DHT22;23741;49.446;8.754;2022-09-01T04:40:48;20.30;59.30
37910;DHT22;23741;49.446;8.754;2022-09-01T04:42:50;20.30;59.20
37910;DHT22;23741;49.446;8.754;2022-09-01T04:44:52;20.30;59.40
37910;DHT22;23741;49.446;8.754;2022-09-01T04:46:58;20.30;59.50
37910;DHT22;23741;49.446;8.754;2022-09-01T04:49:01;20.20;59.30
37910;DHT22;23741;49.446;8.754;2022-09-01T04:51:13;20.20;59.60
37910;DHT22;23741;49.446;8.754;2022-09-01T04:53:26;20.20;59.30
37910;DHT22;23741;49.446;8.754;2022-09-01T04:55:29;20.20;59.00
37910;DHT22;23741;49.446;8.754;2022-09-01T04:57:31;20.20;59.30
37910;DHT22;23741;49.446;8.754;2022-09-01T04:59:33;20.10;60.00
37910;DHT22;23741;49.446;8.754;2022-09-01T05:01:36;20.10;59.60
37910;DHT22;23741;49.446;8.754;2022-09-01T05:03:45;20.10;59.70
37910;DHT22;23741;49.446;8.754;2022-09-01T05:06:11;20.20;59.60
37910;DHT22;23741;49.446;8.754;2022-09-01T05:08:19;20.10;59.80
37910;DHT22;23741;49.446;8.754;2022-09-01T05:10:26;20.10;59.40
37910;DHT22;23741;49.446;8.754;2022-09-01T05:12:51;20.10;60.00
37910;DHT22;23741;49.446;8.754;2022-09-01T05:14:53;20.10;59.50
37910;DHT22;23741;49.446;8.754;2022-09-01T05:16:56;20.10;59.80
37910;DHT22;23741;49.446;8.754;2022-09-01T05:19:00;20.10;59.90
37910;DHT22;23741;49.446;8.754;2022-09-01T05:21:07;20.10;59.80
37910;DHT22;23741;49.446;8.754;2022-09-01T05:23:11;20.10;60.40
37910;DHT22;23741;49.446;8.754;2022-09-01T05:25:13;20.10;60.10
37910;DHT22;23741;49.446;8.754;2022-09-01T05:27:17;20.10;59.80
37910;DHT22;23741;49.446;8.754;2022-09-01T05:29:19;20.10;60.50
37910;DHT22;23741;49.446;8.754;2022-09-01T05:31:23;20.10;60.50
37910;DHT22;23741;49.446;8.754;2022-09-01T05:33:25;20.10;60.20
37910;DHT22;23741;49.446;8.754;2022-09-01T05:35:27;20.10;60.70
37910;DHT22;23741;49.446;8.754;2022-09-01T05:37:36;20.10;60.40
37910;DHT22;23741;49.446;8.754;2022-09-01T05:39:38;20.10;60.80
37910;DHT22;23741;49.446;8.754;2022-09-01T05:41:40;20.20;60.90
37910;DHT22;23741;49.446;8.754;2022-09-01T05:43:43;20.10;60.90
37910;DHT22;23741;49.446;8.754;2022-09-01T05:45:46;20.20;61.20
37910;DHT22;23741;49.446;8.754;2022-09-01T05:48:07;20.20;60.60
37910;DHT22;23741;49.446;8.754;2022-09-01T05:50:09;20.20;60.40
37910;DHT22;23741;49.446;8.754;2022-09-01T05:52:15;20.20;60.90
37910;DHT22;23741;49.446;8.754;2022-09-01T05:54:18;20.20;61.00
37910;DHT22;23741;49.446;8.754;2022-09-01T05:56:22;20.20;60.70
37910;DHT22;23741;49.446;8.754;2022-09-01T05:58:25;20.30;60.50
37910;DHT22;23741;49.446;8.754;2022-09-01T06:00:28;20.30;60.90
37910;DHT22;23741;49.446;8.754;2022-09-01T06:02:35;20.30;61.10
37910;DHT22;23741;49.446;8.754;2022-09-01T06:04:38;20.30;61.20
37910;DHT22;23741;49.446;8.754;2022-09-01T06:06:49;20.30;61.20
37910;DHT22;23741;49.446;8.754;2022-09-01T06:09:11;20.30;61.00
37910;DHT22;23741;49.446;8.754;2022-09-01T06:11:14;20.40;60.80
37910;DHT22;23741;49.446;8.754;2022-09-01T06:13:17;20.40;60.80
37910;DHT22;23741;49.446;8.754;2022-09-01T06:15:28;20.50;62.00
37910;DHT22;23741;49.446;8.754;2022-09-01T06:17:32;20.50;61.20
37910;DHT22;23741;49.446;8.754;2022-09-01T06:19:38;20.50;61.00
37910;DHT22;23741;49.446;8.754;2022-09-01T06:21:40;20.50;61.20
37910;DHT22;23741;49.446;8.754;2022-09-01T06:23:43;20.60;60.90
37910;DHT22;23741;49.446;8.754;2022-09-01T06:25:45;20.60;60.70
37910;DHT22;23741;49.446;8.754;2022-09-01T06:27:50;20.70;60.80
37910;DHT22;23741;49.446;8.754;2022-09-01T06:29:53;20.70;61.00
37910;DHT22;23741;49.446;8.754;2022-09-01T06:31:57;20.70;60.70
37910;DHT22;23741;49.446;8.754;2022-09-01T06:34:01;20.70;60.70
37910;DHT22;23741;49.446;8.754;2022-09-01T06:36:04;20.80;60.60
37910;DHT22;23741;49.446;8.754;2022-09-01T06:38:07;20.80;60.40
37910;DHT22;23741;49.446;8.754;2022-09-01T06:40:15;20.90;60.70
37910;DHT22;23741;49.446;8.754;2022-09-01T06:42:20;20.90;60.60
37910;DHT22;23741;49.446;8.754;2022-09-01T06:44:33;20.90;60.70
37910;DHT22;23741;49.446;8.754;2022-09-01T06:46:42;20.90;60.60
37910;DHT22;23741;49.446;8.754;2022-09-01T06:48:44;21.00;60.70
37910;DHT22;23741;49.446;8.754;2022-09-01T06:50:49;21.00;60.60
37910;DHT22;23741;49.446;8.754;2022-09-01T06:53:11;21.10;60.60
37910;DHT22;23741;49.446;8.754;2022-09-01T06:55:34;21.10;60.40
37910;DHT22;23741;49.446;8.754;2022-09-01T06:57:39;21.10;60.30
37910;DHT22;23741;49.446;8.754;2022-09-01T07:00:02;21.10;60.20
37910;DHT22;23741;49.446;8.754;2022-09-01T07:02:07;21.20;60.00
37910;DHT22;23741;49.446;8.754;2022-09-01T07:04:35;21.20;60.00
37910;DHT22;23741;49.446;8.754;2022-09-01T07:06:44;21.20;59.90
37910;DHT22;23741;49.446;8.754;2022-09-01T07:09:03;21.20;59.90
37910;DHT22;23741;49.446;8.754;2022-09-01T07:11:54;21.20;59.90
37910;DHT22;23741;49.446;8.754;2022-09-01T07:14:17;21.30;59.60
37910;DHT22;23741;49.446;8.754;2022-09-01T07:16:20;21.30;59.70
37910;DHT22;23741;49.446;8.754;2022-09-01T07:18:34;21.30;59.70
37910;DHT22;23741;49.446;8.754;2022-09-01T07:20:39;21.40;59.50
37910;DHT22;23741;49.446;8.754;2022-09-01T07:23:03;21.40;59.50
37910;DHT22;23741;49.446;8.754;2022-09-01T07:25:25;21.40;59.30
37910;DHT22;23741;49.446;8.754;2022-09-01T07:27:57;21.40;59.40
37910;DHT22;23741;49.446;8.754;2022-09-01T07:30:01;21.40;59.40
37910;DHT22;23741;49.446;8.754;2022-09-01T07:32:04;21.40;59.40
37910;DHT22;23741;49.446;8.754;2022-09-01T07:34:26;21.50;59.30
37910;DHT22;23741;49.446;8.754;2022-09-01T07:36:48;21.50;59.40
37910;DHT22;23741;49.446;8.754;2022-09-01T07:39:12;21.50;59.50
37910;DHT22;23741;49.446;8.754;2022-09-01T07:41:57;21.60;59.40
37910;DHT22;23741;49.446;8.754;2022-09-01T07:44:45;21.60;59.30
37910;DHT22;23741;49.446;8.754;2022-09-01T07:47:15;21.70;59.00
37910;DHT22;23741;49.446;8.754;2022-09-01T07:49:21;21.70;59.20
37910;DHT22;23741;49.446;8.754;2022-09-01T07:51:43;21.70;59.20
37910;DHT22;23741;49.446;8.754;2022-09-01T07:53:53;21.80;59.10
37910;DHT22;23741;49.446;8.754;2022-09-01T07:55:57;21.80;59.00
37910;DHT22;23741;49.446;8.754;2022-09-01T07:57:59;21.80;58.90
37910;DHT22;23741;49.446;8.754;2022-09-01T08:00:03;21.80;58.80
37910;DHT22;23741;49.446;8.754;2022-09-01T08:02:14;21.90;58.70
37910;DHT22;23741;49.446;8.754;2022-09-01T08:04:19;21.90;58.70
37910;DHT22;23741;49.446;8.754;2022-09-01T08:06:24;21.90;58.70
37910;DHT22;23741;49.446;8.754;2022-09-01T08:08:29;21.90;58.70
37910;DHT22;23741;49.446;8.754;2022-09-01T08:10:32;21.90;58.70
37910;DHT22;23741;49.446;8.754;2022-09-01T08:12:38;22.00;58.80
37910;DHT22;23741;49.446;8.754;2022-09-01T08:14:39;22.00;58.80
37910;DHT22;23741;49.446;8.754;2022-09-01T08:16:41;22.00;58.60
37910;DHT22;23741;49.446;8.754;2022-09-01T08:18:53;22.10;58.70
37910;DHT22;23741;49.446;8.754;2022-09-01T08:21:04;22.10;58.60
37910;DHT22;23741;49.446;8.754;2022-09-01T08:23:31;22.10;58.70
37910;DHT22;23741;49.446;8.754;2022-09-01T08:25:34;22.10;58.60
37910;DHT22;23741;49.446;8.754;2022-09-01T08:27:36;22.20;58.60
37910;DHT22;23741;49.446;8.754;2022-09-01T08:29:39;22.20;58.50
37910;DHT22;23741;49.446;8.754;2022-09-01T08:31:41;22.20;58.50
37910;DHT22;23741;49.446;8.754;2022-09-01T08:33:45;22.20;58.60
37910;DHT22;23741;49.446;8.754;2022-09-01T08:35:48;22.30;58.50
37910;DHT22;23741;49.446;8.754;2022-09-01T08:37:51;22.30;58.60
37910;DHT22;23741;49.446;8.754;2022-09-01T08:39:54;22.30;58.60
37910;DHT22;23741;49.446;8.754;2022-09-01T08:44:38;22.40;58.50
37910;DHT22;23741;49.446;8.754;2022-09-01T08:46:41;22.40;58.40
37910;DHT22;23741;49.446;8.754;2022-09-01T08:48:47;22.40;58.30
37910;DHT22;23741;49.446;8.754;2022-09-01T08:53:35;22.50;58.30
37910;DHT22;23741;49.446;8.754;2022-09-01T08:55:44;22.60;58.20
37910;DHT22;23741;49.446;8.754;2022-09-01T08:57:48;22.60;58.10
37910;DHT22;23741;49.446;8.754;2022-09-01T08:59:57;22.60;58.00
37910;DHT22;23741;49.446;8.754;2022-09-01T09:04:31;22.70;57.90
37910;DHT22;23741;49.446;8.754;2022-09-01T09:06:39;22.70;57.90
37910;DHT22;23741;49.446;8.754;2022-09-01T09:15:42;22.80;57.70
37910;DHT22;23741;49.446;8.754;2022-09-01T09:17:49;22.80;57.60
37910;DHT22;23741;49.446;8.754;2022-09-01T09:20:00;22.90;57.70
37910;DHT22;23741;49.446;8.754;2022-09-01T09:22:06;22.90;57.60
37910;DHT22;23741;49.446;8.754;2022-09-01T09:24:24;22.90;57.40
37910;DHT22;23741;49.446;8.754;2022-09-01T09:26:29;23.00;57.50
37910;DHT22;23741;49.446;8.754;2022-09-01T09:28:43;23.00;57.40
37910;DHT22;23741;49.446;8.754;2022-09-01T09:30:44;23.10;57.50
37910;DHT22;23741;49.446;8.754;2022-09-01T09:35:28;23.10;57.10
37910;DHT22;23741;49.446;8.754;2022-09-01T09:37:33;23.20;57.10
37910;DHT22;23741;49.446;8.754;2022-09-01T09:39:36;23.20;57.10
37910;DHT22;23741;49.446;8.754;2022-09-01T09:41:38;23.30;57.20
37910;DHT22;23741;49.446;8.754;2022-09-01T09:45:49;23.40;57.00
37910;DHT22;23741;49.446;8.754;2022-09-01T09:47:52;23.40;56.90
37910;DHT22;23741;49.446;8.754;2022-09-01T09:50:09;23.50;56.90
37910;DHT22;23741;49.446;8.754;2022-09-01T09:52:15;23.50;56.80
37910;DHT22;23741;49.446;8.754;2022-09-01T09:56:25;23.50;56.70
37910;DHT22;23741;49.446;8.754;2022-09-01T09:58:28;23.50;56.60
37910;DHT22;23741;49.446;8.754;2022-09-01T10:00:35;23.60;56.70
37910;DHT22;23741;49.446;8.754;2022-09-01T10:02:37;23.60;56.80
37910;DHT22;23741;49.446;8.754;2022-09-01T10:04:40;23.60;56.80
37910;DHT22;23741;49.446;8.754;2022-09-01T10:06:42;23.70;56.70
37910;DHT22;23741;49.446;8.754;2022-09-01T10:08:47;23.70;56.70
37910;DHT22;23741;49.446;8.754;2022-09-01T10:10:49;23.70;56.50
37910;DHT22;23741;49.446;8.754;2022-09-01T10:12:59;23.70;56.50
37910;DHT22;23741;49.446;8.754;2022-09-01T10:15:05;23.80;56.70
37910;DHT22;23741;49.446;8.754;2022-09-01T10:17:20;23.80;56.70
37910;DHT22;23741;49.446;8.754;2022-09-01T10:19:25;23.80;56.60
37910;DHT22;23741;49.446;8.754;2022-09-01T10:21:36;23.90;56.70
37910;DHT22;23741;49.446;8.754;2022-09-01T10:23:38;23.90;56.60
37910;DHT22;23741;49.446;8.754;2022-09-01T10:25:42;24.00;56.50
37910;DHT22;23741;49.446;8.754;2022-09-01T10:27:45;23.90;56.50
37910;DHT22;23741;49.446;8.754;2022-09-01T10:32:15;24.00;56.40
37910;DHT22;23741;49.446;8.754;2022-09-01T10:34:37;24.10;56.40
37910;DHT22;23741;49.446;8.754;2022-09-01T10:36:43;24.20;56.50
37910;DHT22;23741;49.446;8.754;2022-09-01T10:38:47;24.30;56.10
37910;DHT22;23741;49.446;8.754;2022-09-01T10:40:59;24.30;56.40
37910;DHT22;23741;49.446;8.754;2022-09-01T10:45:29;24.50;56.60
37910;DHT22;23741;49.446;8.754;2022-09-01T10:47:32;24.70;56.60
37910;DHT22;23741;49.446;8.754;2022-09-01T10:51:41;24.80;56.20
37910;DHT22;23741;49.446;8.754;2022-09-01T10:53:52;24.90;57.00
37910;DHT22;23741;49.446;8.754;2022-09-01T11:01:16;25.20;55.80
37910;DHT22;23741;49.446;8.754;2022-09-01T11:03:53;25.20;55.40
37910;DHT22;23741;49.446;8.754;2022-09-01T11:06:01;25.20;54.60
37910;DHT22;23741;49.446;8.754;2022-09-01T11:10:32;25.30;55.30
37910;DHT22;23741;49.446;8.754;2022-09-01T11:12:51;25.40;55.40
37910;DHT22;23741;49.446;8.754;2022-09-01T11:21:22;25.50;55.40
37910;DHT22;23741;49.446;8.754;2022-09-01T11:23:27;25.60;55.00
37910;DHT22;23741;49.446;8.754;2022-09-01T11:25:35;25.60;54.60
37910;DHT22;23741;49.446;8.754;2022-09-01T11:31:56;25.60;54.40
37910;DHT22;23741;49.446;8.754;2022-09-01T11:34:03;25.60;54.50
37910;DHT22;23741;49.446;8.754;2022-09-01T11:36:10;25.70;54.60
37910;DHT22;23741;49.446;8.754;2022-09-01T11:38:14;25.70;54.30
37910;DHT22;23741;49.446;8.754;2022-09-01T11:40:20;25.70;54.50
37910;DHT22;23741;49.446;8.754;2022-09-01T11:42:28;25.70;54.60
37910;DHT22;23741;49.446;8.754;2022-09-01T11:46:43;25.80;54.70
37910;DHT22;23741;49.446;8.754;2022-09-01T11:48:47;25.80;54.70
37910;DHT22;23741;49.446;8.754;2022-09-01T11:50:59;25.90;54.90
37910;DHT22;23741;49.446;8.754;2022-09-01T11:53:03;26.00;54.90
37910;DHT22;23741;49.446;8.754;2022-09-01T11:55:06;26.10;54.80
37910;DHT22;23741;49.446;8.754;2022-09-01T11:57:19;26.10;55.00
37910;DHT22;23741;49.446;8.754;2022-09-01T11:59:34;26.20;54.50
37910;DHT22;23741;49.446;8.754;2022-09-01T12:01:36;26.40;54.70
37910;DHT22;23741;49.446;8.754;2022-09-01T12:03:38;26.50;54.80
37910;DHT22;23741;49.446;8.754;2022-09-01T12:05:41;26.60;55.00
37910;DHT22;23741;49.446;8.754;2022-09-01T12:07:44;26.70;55.00
37910;DHT22;23741;49.446;8.754;2022-09-01T12:09:47;26.80;54.30
37910;DHT22;23741;49.446;8.754;2022-09-01T12:11:49;26.90;54.70
37910;DHT22;23741;49.446;8.754;2022-09-01T12:13:57;27.00;54.20
37910;DHT22;23741;49.446;8.754;2022-09-01T12:16:00;27.10;54.30
37910;DHT22;23741;49.446;8.754;2022-09-01T12:18:21;27.20;54.00
37910;DHT22;23741;49.446;8.754;2022-09-01T12:20:28;27.30;54.10
37910;DHT22;23741;49.446;8.754;2022-09-01T12:22:31;27.40;54.20
37910;DHT22;23741;49.446;8.754;2022-09-01T12:24:34;27.50;54.70
37910;DHT22;23741;49.446;8.754;2022-09-01T12:26:35;27.60;54.50
37910;DHT22;23741;49.446;8.754;2022-09-01T12:28:38;27.70;54.30
37910;DHT22;23741;49.446;8.754;2022-09-01T12:30:42;27.80;54.00
37910;DHT22;23741;49.446;8.754;2022-09-01T12:32:45;27.90;54.00
37910;DHT22;23741;49.446;8.754;2022-09-01T12:34:58;27.90;52.60
37910;DHT22;23741;49.446;8.754;2022-09-01T12:39:21;28.00;52.60
37910;DHT22;23741;49.446;8.754;2022-09-01T12:41:37;28.10;52.60
37910;DHT22;23741;49.446;8.754;2022-09-01T12:43:40;28.10;51.90
37910;DHT22;23741;49.446;8.754;2022-09-01T12:45:44;28.20;52.30
37910;DHT22;23741;49.446;8.754;2022-09-01T12:47:47;28.30;52.90
37910;DHT22;23741;49.446;8.754;2022-09-01T12:49:51;28.40;52.80
37910;DHT22;23741;49.446;8.754;2022-09-01T12:54:15;28.50;52.70
37910;DHT22;23741;49.446;8.754;2022-09-01T12:56:36;28.60;52.40
37910;DHT22;23741;49.446;8.754;2022-09-01T12:58:39;28.70;51.70
37910;DHT22;23741;49.446;8.754;2022-09-01T13:05:16;28.80;51.70
37910;DHT22;23741;49.446;8.754;2022-09-01T13:07:18;28.80;51.50
37910;DHT22;23741;49.446;8.754;2022-09-01T13:09:20;28.80;51.30
37910;DHT22;23741;49.446;8.754;2022-09-01T13:11:22;28.80;51.00
37910;DHT22;23741;49.446;8.754;2022-09-01T13:13:24;28.80;50.60
37910;DHT22;23741;49.446;8.754;2022-09-01T13:15:26;28.80;50.60
37910;DHT22;23741;49.446;8.754;2022-09-01T13:17:28;28.70;49.80
37910;DHT22;23741;49.446;8.754;2022-09-01T13:19:31;28.70;49.60
37910;DHT22;23741;49.446;8.754;2022-09-01T13:21:34;28.60;49.70
37910;DHT22;23741;49.446;8.754;2022-09-01T13:23:36;28.60;49.60
37910;DHT22;23741;49.446;8.754;2022-09-01T13:25:38;28.50;49.80
37910;DHT22;23741;49.446;8.754;2022-09-01T13:27:40;28.40;49.90
37910;DHT22;23741;49.446;8.754;2022-09-01T13:29:45;28.40;50.60
37910;DHT22;23741;49.446;8.754;2022-09-01T13:31:47;28.40;50.40
37910;DHT22;23741;49.446;8.754;2022-09-01T13:34:08;28.40;50.70
37910;DHT22;23741;49.446;8.754;2022-09-01T13:36:20;28.40;50.80
37910;DHT22;23741;49.446;8.754;2022-09-01T13:38:42;28.40;51.20
37910;DHT22;23741;49.446;8.754;2022-09-01T13:40:51;28.50;50.90
37910;DHT22;23741;49.446;8.754;2022-09-01T13:42:53;28.50;51.50
37910;DHT22;23741;49.446;8.754;2022-09-01T13:44:55;28.60;51.50
37910;DHT22;23741;49.446;8.754;2022-09-01T13:46:57;28.70;51.20
37910;DHT22;23741;49.446;8.754;2022-09-01T13:49:00;28.70;51.40
37910;DHT22;23741;49.446;8.754;2022-09-01T13:51:04;28.80;51.10
37910;DHT22;23741;49.446;8.754;2022-09-01T13:53:21;28.90;51.50
37910;DHT22;23741;49.446;8.754;2022-09-01T13:55:25;29.10;51.40
37910;DHT22;23741;49.446;8.754;2022-09-01T13:57:27;29.20;51.30
37910;DHT22;23741;49.446;8.754;2022-09-01T13:59:36;29.30;51.50
37910;DHT22;23741;49.446;8.754;2022-09-01T14:01:38;29.40;51.20
37910;DHT22;23741;49.446;8.754;2022-09-01T14:03:42;29.50;50.60
37910;DHT22;23741;49.446;8.754;2022-09-01T14:05:45;29.50;50.80
37910;DHT22;23741;49.446;8.754;2022-09-01T14:07:49;29.60;49.90
37910;DHT22;23741;49.446;8.754;2022-09-01T14:09:51;29.70;50.00
37910;DHT22;23741;49.446;8.754;2022-09-01T14:11:53;29.70;50.60
37910;DHT22;23741;49.446;8.754;2022-09-01T14:13:55;29.80;50.30
37910;DHT22;23741;49.446;8.754;2022-09-01T14:15:57;29.90;50.30
37910;DHT22;23741;49.446;8.754;2022-09-01T14:18:00;30.00;51.00